NKS5 KLAS-KFLL
Flight info
| Callsign | NKS5 |
|---|---|
| Flight time | N/A |
| Altitude | 35000 |
| Route | NIITZ4 SSKEE GUP TXO/N0452F370 CIYAL MQP ARDIA LFK ZIROR LEV Y290 DOWRY TEEKY4 |
| Aircraft | A21N/M-SDE3FGHIRWY/LB1 |
Departure
| Time | 2026-05-08 05:55 |
|---|---|
| Airport | Harry Reid International Airport (KLAS) |
Arrival
| Time | N/A |
|---|---|
| Airport | Fort Lauderdale Hollywood International Airport (KFLL) |
| Time | Latitude | Longitude | Altitude | Speed | Heading |
|---|---|---|---|---|---|
| 2026-05-08 04:57 | 36.08110 | -115.13715 | 2081 ft | 0 kts | 61° |
| 2026-05-08 05:43 | 36.08109 | -115.13718 | 2082 ft | 2 kts | 62° |
| 2026-05-08 05:43 | 36.08101 | -115.13734 | 2084 ft | 2 kts | 50° |
| 2026-05-08 05:43 | 36.08090 | -115.13747 | 2086 ft | 2 kts | 39° |
| 2026-05-08 05:44 | 36.08078 | -115.13757 | 2086 ft | 2 kts | 27° |
| 2026-05-08 05:44 | 36.08065 | -115.13764 | 2086 ft | 2 kts | 15° |
| 2026-05-08 05:44 | 36.08050 | -115.13769 | 2085 ft | 2 kts | 16° |
| 2026-05-08 05:44 | 36.08035 | -115.13774 | 2084 ft | 2 kts | 16° |
| 2026-05-08 05:45 | 36.08021 | -115.13779 | 2084 ft | 2 kts | 16° |
| 2026-05-08 05:45 | 36.08007 | -115.13786 | 2084 ft | 2 kts | 25° |
| 2026-05-08 05:45 | 36.07994 | -115.13793 | 2084 ft | 0 kts | 30° |
| 2026-05-08 05:45 | 36.07991 | -115.13796 | 2085 ft | 0 kts | 32° |
| 2026-05-08 05:47 | 36.07992 | -115.13795 | 2084 ft | 0 kts | 32° |
| 2026-05-08 05:48 | 36.08002 | -115.13787 | 2084 ft | 3 kts | 35° |
| 2026-05-08 05:48 | 36.08008 | -115.13752 | 2083 ft | 5 kts | 108° |
| 2026-05-08 05:48 | 36.07993 | -115.13718 | 2083 ft | 4 kts | 125° |
| 2026-05-08 05:48 | 36.07986 | -115.13708 | 2083 ft | 0 kts | 128° |
| 2026-05-08 05:49 | 36.07981 | -115.13699 | 2083 ft | 2 kts | 130° |
| 2026-05-08 05:50 | 36.07958 | -115.13670 | 2083 ft | 6 kts | 134° |
| 2026-05-08 05:50 | 36.07916 | -115.13616 | 2083 ft | 11 kts | 135° |
| 2026-05-08 05:50 | 36.07852 | -115.13538 | 2082 ft | 13 kts | 133° |
| 2026-05-08 05:50 | 36.07828 | -115.13425 | 2079 ft | 16 kts | 91° |
| 2026-05-08 05:51 | 36.07829 | -115.13270 | 2074 ft | 19 kts | 90° |
| 2026-05-08 05:51 | 36.07829 | -115.13099 | 2070 ft | 21 kts | 89° |
| 2026-05-08 05:51 | 36.07830 | -115.12906 | 2065 ft | 22 kts | 90° |
| 2026-05-08 05:51 | 36.07830 | -115.12713 | 2061 ft | 20 kts | 90° |
| 2026-05-08 05:52 | 36.07832 | -115.12540 | 2057 ft | 19 kts | 90° |
| 2026-05-08 05:52 | 36.07832 | -115.12388 | 2055 ft | 15 kts | 90° |
| 2026-05-08 05:52 | 36.07826 | -115.12275 | 2054 ft | 11 kts | 113° |
| 2026-05-08 05:52 | 36.07786 | -115.12200 | 2054 ft | 8 kts | 127° |
| 2026-05-08 05:53 | 36.07753 | -115.12151 | 2053 ft | 5 kts | 135° |
| 2026-05-08 05:53 | 36.07722 | -115.12129 | 2054 ft | 5 kts | 164° |
| 2026-05-08 05:53 | 36.07673 | -115.12131 | 2056 ft | 9 kts | 205° |
| 2026-05-08 05:53 | 36.07646 | -115.12228 | 2057 ft | 16 kts | 269° |
| 2026-05-08 05:54 | 36.07644 | -115.12637 | 2063 ft | 82 kts | 269° |
| 2026-05-08 05:54 | 36.07641 | -115.13599 | 2087 ft | 140 kts | 269° |
| 2026-05-08 05:54 | 36.07641 | -115.15028 | 2159 ft | 185 kts | 270° |
| 2026-05-08 05:54 | 36.07647 | -115.16636 | 2683 ft | 189 kts | 268° |
| 2026-05-08 05:55 | 36.07637 | -115.18269 | 3353 ft | 193 kts | 268° |
| 2026-05-08 05:55 | 36.07666 | -115.19893 | 4106 ft | 191 kts | 270° |
| 2026-05-08 05:55 | 36.07609 | -115.21574 | 4488 ft | 201 kts | 261° |
| 2026-05-08 05:55 | 36.07344 | -115.23345 | 4760 ft | 215 kts | 258° |
| 2026-05-08 05:56 | 36.06852 | -115.25156 | 4985 ft | 232 kts | 238° |
| 2026-05-08 05:56 | 36.05635 | -115.26559 | 5197 ft | 251 kts | 207° |
| 2026-05-08 05:56 | 36.03945 | -115.27342 | 5510 ft | 267 kts | 200° |
| 2026-05-08 05:56 | 36.02150 | -115.28110 | 6000 ft | 276 kts | 201° |
| 2026-05-08 05:57 | 36.00302 | -115.28724 | 6583 ft | 281 kts | 185° |
| 2026-05-08 05:57 | 35.98364 | -115.28290 | 7128 ft | 288 kts | 155° |
| 2026-05-08 05:57 | 35.96737 | -115.26828 | 7701 ft | 292 kts | 137° |
| 2026-05-08 05:57 | 35.95248 | -115.25124 | 8266 ft | 296 kts | 137° |
| 2026-05-08 05:58 | 35.93729 | -115.23408 | 8836 ft | 300 kts | 137° |
| 2026-05-08 05:58 | 35.92201 | -115.21641 | 9402 ft | 304 kts | 132° |
| 2026-05-08 05:58 | 35.90841 | -115.19623 | 9972 ft | 306 kts | 123° |
| 2026-05-08 05:58 | 35.89693 | -115.17396 | 10513 ft | 311 kts | 118° |
| 2026-05-08 05:59 | 35.88573 | -115.15044 | 10790 ft | 326 kts | 118° |
| 2026-05-08 05:59 | 35.87452 | -115.12552 | 11058 ft | 339 kts | 111° |
| 2026-05-08 05:59 | 35.86789 | -115.09759 | 11510 ft | 342 kts | 95° |
| 2026-05-08 05:59 | 35.86736 | -115.06866 | 12155 ft | 340 kts | 84° |
| 2026-05-08 06:00 | 35.86900 | -115.03974 | 12810 ft | 340 kts | 82° |
| 2026-05-08 06:00 | 35.87087 | -115.01058 | 13449 ft | 342 kts | 83° |
| 2026-05-08 06:00 | 35.87266 | -114.98147 | 14055 ft | 344 kts | 83° |
| 2026-05-08 06:00 | 35.87442 | -114.95188 | 14616 ft | 347 kts | 83° |
| 2026-05-08 06:01 | 35.87611 | -114.92228 | 15153 ft | 350 kts | 83° |
| 2026-05-08 06:01 | 35.87777 | -114.89253 | 15698 ft | 353 kts | 83° |
| 2026-05-08 06:01 | 35.87942 | -114.86239 | 16236 ft | 355 kts | 83° |
| 2026-05-08 06:01 | 35.88108 | -114.83185 | 16754 ft | 358 kts | 83° |
| 2026-05-08 06:02 | 35.88275 | -114.80101 | 17282 ft | 361 kts | 83° |
| 2026-05-08 06:02 | 35.88437 | -114.77045 | 17818 ft | 362 kts | 83° |
| 2026-05-08 06:02 | 35.88601 | -114.73937 | 18281 ft | 365 kts | 83° |
| 2026-05-08 06:02 | 35.88765 | -114.70824 | 18704 ft | 368 kts | 83° |
| 2026-05-08 06:03 | 35.88932 | -114.67667 | 19159 ft | 371 kts | 83° |
| 2026-05-08 06:03 | 35.89099 | -114.64483 | 19606 ft | 374 kts | 83° |
| 2026-05-08 06:03 | 35.89265 | -114.61285 | 20033 ft | 376 kts | 83° |
| 2026-05-08 06:03 | 35.89433 | -114.58051 | 20455 ft | 379 kts | 83° |
| 2026-05-08 06:04 | 35.89597 | -114.54834 | 20874 ft | 382 kts | 83° |
| 2026-05-08 06:04 | 35.89702 | -114.51554 | 21285 ft | 386 kts | 86° |
| 2026-05-08 06:04 | 35.89700 | -114.48212 | 21685 ft | 389 kts | 87° |
| 2026-05-08 06:04 | 35.89682 | -114.44886 | 22067 ft | 392 kts | 87° |
| 2026-05-08 06:05 | 35.89662 | -114.41512 | 22451 ft | 394 kts | 87° |
| 2026-05-08 06:05 | 35.89641 | -114.38130 | 22836 ft | 397 kts | 87° |
| 2026-05-08 06:05 | 35.89620 | -114.34773 | 23213 ft | 399 kts | 88° |
| 2026-05-08 06:05 | 35.89600 | -114.31345 | 23587 ft | 402 kts | 88° |
| 2026-05-08 06:06 | 35.89578 | -114.27896 | 23972 ft | 404 kts | 88° |
| 2026-05-08 06:06 | 35.89554 | -114.24417 | 24343 ft | 406 kts | 87° |
| 2026-05-08 06:06 | 35.89530 | -114.20940 | 24693 ft | 408 kts | 87° |
| 2026-05-08 06:06 | 35.89505 | -114.17446 | 25047 ft | 410 kts | 87° |
| 2026-05-08 06:07 | 35.89478 | -114.13937 | 25392 ft | 411 kts | 87° |
| 2026-05-08 06:07 | 35.89452 | -114.10435 | 25718 ft | 413 kts | 87° |
| 2026-05-08 06:07 | 35.89425 | -114.06910 | 26045 ft | 415 kts | 87° |
| 2026-05-08 06:07 | 35.89395 | -114.03365 | 26366 ft | 416 kts | 87° |
| 2026-05-08 06:08 | 35.89366 | -113.99763 | 26678 ft | 418 kts | 87° |
| 2026-05-08 06:08 | 35.89334 | -113.96174 | 26983 ft | 420 kts | 87° |
| 2026-05-08 06:08 | 35.89302 | -113.92624 | 27282 ft | 421 kts | 87° |
| 2026-05-08 06:08 | 35.89269 | -113.88990 | 27565 ft | 423 kts | 87° |
| 2026-05-08 06:09 | 35.89234 | -113.85397 | 27847 ft | 425 kts | 87° |
| 2026-05-08 06:09 | 35.89197 | -113.81756 | 28127 ft | 427 kts | 87° |
| 2026-05-08 06:09 | 35.89159 | -113.78071 | 28419 ft | 428 kts | 87° |
| 2026-05-08 06:09 | 35.89120 | -113.74400 | 28703 ft | 429 kts | 87° |
| 2026-05-08 06:10 | 35.89080 | -113.70737 | 28982 ft | 431 kts | 87° |
| 2026-05-08 06:10 | 35.89040 | -113.67046 | 29254 ft | 432 kts | 87° |
| 2026-05-08 06:10 | 35.88996 | -113.63354 | 29512 ft | 434 kts | 87° |
| 2026-05-08 06:10 | 35.88953 | -113.59644 | 29754 ft | 436 kts | 87° |
| 2026-05-08 06:11 | 35.88863 | -113.55911 | 29982 ft | 439 kts | 89° |
| 2026-05-08 06:11 | 35.88604 | -113.52131 | 30233 ft | 442 kts | 92° |
| 2026-05-08 06:11 | 35.88170 | -113.48399 | 30490 ft | 445 kts | 96° |
| 2026-05-08 06:11 | 35.87639 | -113.44647 | 30747 ft | 446 kts | 96° |
| 2026-05-08 06:12 | 35.87099 | -113.40910 | 30998 ft | 447 kts | 96° |
| 2026-05-08 06:12 | 35.86553 | -113.37157 | 31233 ft | 448 kts | 96° |
| 2026-05-08 06:12 | 35.86007 | -113.33392 | 31477 ft | 449 kts | 96° |
| 2026-05-08 06:12 | 35.85458 | -113.29601 | 31796 ft | 448 kts | 96° |
| 2026-05-08 06:13 | 35.84907 | -113.25803 | 32139 ft | 446 kts | 96° |
| 2026-05-08 06:13 | 35.84367 | -113.22083 | 32453 ft | 445 kts | 96° |
| 2026-05-08 06:13 | 35.83819 | -113.18317 | 32748 ft | 445 kts | 96° |
| 2026-05-08 06:13 | 35.83278 | -113.14602 | 33042 ft | 444 kts | 96° |
| 2026-05-08 06:14 | 35.82729 | -113.10846 | 33336 ft | 444 kts | 96° |
| 2026-05-08 06:14 | 35.82187 | -113.07140 | 33608 ft | 443 kts | 96° |
| 2026-05-08 06:14 | 35.81641 | -113.03412 | 33866 ft | 443 kts | 96° |
| 2026-05-08 06:14 | 35.81095 | -112.99689 | 34112 ft | 444 kts | 96° |
| 2026-05-08 06:15 | 35.80545 | -112.95947 | 34361 ft | 444 kts | 96° |
| 2026-05-08 06:15 | 35.79995 | -112.92210 | 34598 ft | 445 kts | 96° |
| 2026-05-08 06:15 | 35.79438 | -112.88436 | 34815 ft | 446 kts | 96° |
| 2026-05-08 06:15 | 35.78887 | -112.84712 | 35016 ft | 447 kts | 96° |
| 2026-05-08 06:16 | 35.78333 | -112.80975 | 35226 ft | 447 kts | 96° |
| 2026-05-08 06:16 | 35.77211 | -112.73449 | 35266 ft | 449 kts | 96° |
| 2026-05-08 06:17 | 35.75514 | -112.62130 | 35261 ft | 449 kts | 96° |
| 2026-05-08 06:17 | 35.74386 | -112.54620 | 35261 ft | 449 kts | 96° |
| 2026-05-08 06:18 | 35.73243 | -112.47041 | 35259 ft | 449 kts | 96° |
| 2026-05-08 06:18 | 35.72111 | -112.39559 | 35259 ft | 450 kts | 96° |
| 2026-05-08 06:19 | 35.70963 | -112.31998 | 35261 ft | 450 kts | 96° |
| 2026-05-08 06:19 | 35.69806 | -112.24432 | 35261 ft | 450 kts | 96° |
| 2026-05-08 06:20 | 35.68652 | -112.16908 | 35266 ft | 449 kts | 96° |
| 2026-05-08 06:20 | 35.67493 | -112.09367 | 35271 ft | 450 kts | 96° |
| 2026-05-08 06:21 | 35.66329 | -112.01846 | 35275 ft | 450 kts | 96° |
| 2026-05-08 06:21 | 35.65162 | -111.94321 | 35279 ft | 450 kts | 96° |
| 2026-05-08 06:22 | 35.63987 | -111.86790 | 35284 ft | 449 kts | 95° |
| 2026-05-08 06:22 | 35.63181 | -111.79263 | 35284 ft | 445 kts | 89° |
| 2026-05-08 06:23 | 35.62840 | -111.71680 | 35284 ft | 444 kts | 88° |
| 2026-05-08 06:23 | 35.62530 | -111.64147 | 35275 ft | 443 kts | 88° |
| 2026-05-08 06:24 | 35.62210 | -111.56566 | 35259 ft | 444 kts | 88° |
| 2026-05-08 06:24 | 35.61884 | -111.49009 | 35248 ft | 443 kts | 88° |
| 2026-05-08 06:25 | 35.61552 | -111.41466 | 35231 ft | 444 kts | 88° |
| 2026-05-08 06:25 | 35.61213 | -111.33879 | 35222 ft | 444 kts | 88° |
| 2026-05-08 06:26 | 35.60873 | -111.26362 | 35203 ft | 443 kts | 88° |
| 2026-05-08 06:26 | 35.60529 | -111.18859 | 35197 ft | 443 kts | 88° |
| 2026-05-08 06:27 | 35.60177 | -111.11294 | 35194 ft | 443 kts | 88° |
| 2026-05-08 06:27 | 35.59822 | -111.03780 | 35201 ft | 444 kts | 88° |
| 2026-05-08 06:28 | 35.59460 | -110.96212 | 35206 ft | 443 kts | 88° |
| 2026-05-08 06:28 | 35.59098 | -110.88718 | 35208 ft | 442 kts | 88° |
| 2026-05-08 06:29 | 35.58730 | -110.81206 | 35206 ft | 442 kts | 88° |
| 2026-05-08 06:29 | 35.58357 | -110.73684 | 35202 ft | 443 kts | 88° |
| 2026-05-08 06:30 | 35.57975 | -110.66109 | 35207 ft | 443 kts | 88° |
| 2026-05-08 06:30 | 35.57594 | -110.58612 | 35206 ft | 444 kts | 88° |
| 2026-05-08 06:31 | 35.57204 | -110.51076 | 35213 ft | 442 kts | 88° |
| 2026-05-08 06:31 | 35.56813 | -110.43568 | 35218 ft | 443 kts | 88° |
| 2026-05-08 06:32 | 35.56414 | -110.35995 | 35224 ft | 444 kts | 88° |
| 2026-05-08 06:32 | 35.56011 | -110.28461 | 35230 ft | 444 kts | 88° |
| 2026-05-08 06:33 | 35.55602 | -110.20913 | 35234 ft | 444 kts | 88° |
| 2026-05-08 06:33 | 35.55195 | -110.13438 | 35241 ft | 443 kts | 88° |
| 2026-05-08 06:34 | 35.54778 | -110.05911 | 35237 ft | 443 kts | 88° |
| 2026-05-08 06:34 | 35.54357 | -109.98387 | 35238 ft | 444 kts | 88° |
| 2026-05-08 06:35 | 35.53930 | -109.90820 | 35231 ft | 444 kts | 88° |
| 2026-05-08 06:35 | 35.53500 | -109.83326 | 35237 ft | 444 kts | 88° |
| 2026-05-08 06:36 | 35.53065 | -109.75784 | 35233 ft | 444 kts | 88° |
| 2026-05-08 06:36 | 35.52624 | -109.68244 | 35238 ft | 444 kts | 88° |
| 2026-05-08 06:37 | 35.52181 | -109.60723 | 35246 ft | 444 kts | 89° |
| 2026-05-08 06:37 | 35.51729 | -109.53168 | 35251 ft | 445 kts | 88° |
| 2026-05-08 06:38 | 35.51276 | -109.45654 | 35254 ft | 445 kts | 89° |
| 2026-05-08 06:38 | 35.50814 | -109.38083 | 35260 ft | 445 kts | 88° |
| 2026-05-08 06:39 | 35.50349 | -109.30513 | 35266 ft | 445 kts | 89° |
| 2026-05-08 06:39 | 35.49881 | -109.22986 | 35272 ft | 445 kts | 89° |
| 2026-05-08 06:40 | 35.49405 | -109.15414 | 35265 ft | 446 kts | 89° |
| 2026-05-08 06:40 | 35.48928 | -109.07884 | 35260 ft | 446 kts | 89° |
| 2026-05-08 06:41 | 35.48446 | -109.00343 | 35243 ft | 446 kts | 89° |
| 2026-05-08 06:41 | 35.47955 | -108.92774 | 35188 ft | 446 kts | 89° |
| 2026-05-08 06:42 | 35.47310 | -108.85200 | 35147 ft | 448 kts | 94° |
| 2026-05-08 06:42 | 35.46291 | -108.77683 | 35134 ft | 449 kts | 94° |
| 2026-05-08 06:43 | 35.45254 | -108.70167 | 35138 ft | 450 kts | 94° |
| 2026-05-08 06:43 | 35.44212 | -108.62643 | 35217 ft | 449 kts | 94° |
| 2026-05-08 06:44 | 35.43166 | -108.55104 | 35249 ft | 449 kts | 94° |
| 2026-05-08 06:44 | 35.42117 | -108.47563 | 35260 ft | 450 kts | 94° |
| 2026-05-08 06:45 | 35.41067 | -108.40048 | 35273 ft | 449 kts | 94° |
| 2026-05-08 06:45 | 35.40006 | -108.32507 | 35283 ft | 450 kts | 95° |
| 2026-05-08 06:46 | 35.38944 | -108.24976 | 35295 ft | 450 kts | 95° |
| 2026-05-08 06:46 | 35.37876 | -108.17448 | 35301 ft | 450 kts | 95° |
| 2026-05-08 06:47 | 35.36802 | -108.09914 | 35296 ft | 450 kts | 95° |
| 2026-05-08 06:47 | 35.35728 | -108.02404 | 35275 ft | 450 kts | 95° |
| 2026-05-08 06:48 | 35.34643 | -107.94858 | 35263 ft | 450 kts | 95° |
| 2026-05-08 06:48 | 35.33559 | -107.87360 | 35255 ft | 450 kts | 95° |
| 2026-05-08 06:49 | 35.32467 | -107.79827 | 35253 ft | 450 kts | 95° |
| 2026-05-08 06:49 | 35.31369 | -107.72298 | 35260 ft | 450 kts | 95° |
| 2026-05-08 06:50 | 35.30268 | -107.64775 | 35266 ft | 450 kts | 96° |
| 2026-05-08 06:50 | 35.29162 | -107.57260 | 35267 ft | 451 kts | 96° |
| 2026-05-08 06:51 | 35.28049 | -107.49726 | 35279 ft | 450 kts | 96° |
| 2026-05-08 06:51 | 35.26933 | -107.42203 | 35278 ft | 450 kts | 96° |
| 2026-05-08 06:52 | 35.25816 | -107.34711 | 35269 ft | 450 kts | 96° |
| 2026-05-08 06:52 | 35.24691 | -107.27189 | 35251 ft | 451 kts | 96° |
| 2026-05-08 06:53 | 35.23560 | -107.19675 | 35232 ft | 451 kts | 96° |
| 2026-05-08 06:53 | 35.22417 | -107.12119 | 35223 ft | 451 kts | 96° |
| 2026-05-08 06:54 | 35.21285 | -107.04649 | 35217 ft | 450 kts | 96° |
| 2026-05-08 06:54 | 35.20141 | -106.97133 | 35185 ft | 450 kts | 97° |
| 2026-05-08 06:55 | 35.18998 | -106.89658 | 35104 ft | 450 kts | 97° |
| 2026-05-08 06:55 | 35.17845 | -106.82168 | 35084 ft | 452 kts | 97° |
| 2026-05-08 06:56 | 35.16679 | -106.74609 | 35081 ft | 451 kts | 97° |
| 2026-05-08 06:56 | 35.15514 | -106.67098 | 35083 ft | 452 kts | 97° |
| 2026-05-08 06:57 | 35.14348 | -106.59605 | 35089 ft | 452 kts | 97° |
| 2026-05-08 06:57 | 35.13170 | -106.52066 | 35104 ft | 452 kts | 97° |
| 2026-05-08 06:58 | 35.11984 | -106.44516 | 35131 ft | 452 kts | 97° |
| 2026-05-08 06:58 | 35.10799 | -106.37004 | 35152 ft | 453 kts | 97° |
| 2026-05-08 06:59 | 35.09608 | -106.29473 | 35170 ft | 454 kts | 98° |
| 2026-05-08 06:59 | 35.08408 | -106.21927 | 35184 ft | 453 kts | 98° |
| 2026-05-08 07:00 | 35.07207 | -106.14407 | 35186 ft | 452 kts | 98° |
| 2026-05-08 07:00 | 35.06004 | -106.06902 | 35179 ft | 453 kts | 98° |
| 2026-05-08 07:01 | 35.04792 | -105.99377 | 35171 ft | 454 kts | 98° |
| 2026-05-08 07:01 | 35.03575 | -105.91848 | 35172 ft | 454 kts | 98° |
| 2026-05-08 07:02 | 35.02354 | -105.84322 | 35179 ft | 454 kts | 98° |
| 2026-05-08 07:02 | 35.01127 | -105.76792 | 35191 ft | 455 kts | 98° |
| 2026-05-08 07:03 | 34.99890 | -105.69237 | 35197 ft | 455 kts | 98° |
| 2026-05-08 07:03 | 34.98644 | -105.61659 | 35196 ft | 456 kts | 98° |
| 2026-05-08 07:04 | 34.97400 | -105.54113 | 35193 ft | 455 kts | 98° |
| 2026-05-08 07:04 | 34.96149 | -105.46551 | 35197 ft | 456 kts | 98° |
| 2026-05-08 07:05 | 34.94896 | -105.39023 | 35192 ft | 456 kts | 98° |
| 2026-05-08 07:05 | 34.93636 | -105.31469 | 35195 ft | 457 kts | 99° |
| 2026-05-08 07:06 | 34.92371 | -105.23927 | 35173 ft | 457 kts | 100° |
| 2026-05-08 07:06 | 34.91094 | -105.16347 | 35184 ft | 458 kts | 99° |
| 2026-05-08 07:07 | 34.89811 | -105.08752 | 35171 ft | 458 kts | 100° |
| 2026-05-08 07:07 | 34.88531 | -105.01208 | 35152 ft | 457 kts | 100° |
| 2026-05-08 07:08 | 34.87237 | -104.93610 | 35144 ft | 458 kts | 100° |
| 2026-05-08 07:08 | 34.85940 | -104.86028 | 35136 ft | 459 kts | 100° |
| 2026-05-08 07:09 | 34.84642 | -104.78458 | 35120 ft | 461 kts | 100° |
| 2026-05-08 07:09 | 34.83328 | -104.70840 | 35092 ft | 462 kts | 100° |
| 2026-05-08 07:10 | 34.82002 | -104.63181 | 35071 ft | 464 kts | 101° |
| 2026-05-08 07:10 | 34.80669 | -104.55512 | 35083 ft | 466 kts | 101° |
| 2026-05-08 07:11 | 34.79333 | -104.47851 | 35084 ft | 466 kts | 101° |
| 2026-05-08 07:11 | 34.77989 | -104.40171 | 35093 ft | 466 kts | 101° |
| 2026-05-08 07:12 | 34.76638 | -104.32486 | 35083 ft | 466 kts | 101° |
| 2026-05-08 07:12 | 34.75279 | -104.24789 | 35074 ft | 468 kts | 101° |
| 2026-05-08 07:13 | 34.73913 | -104.17078 | 35079 ft | 468 kts | 101° |
| 2026-05-08 07:13 | 34.72530 | -104.09295 | 35080 ft | 471 kts | 102° |
| 2026-05-08 07:14 | 34.71151 | -104.01569 | 35081 ft | 474 kts | 102° |
| 2026-05-08 07:14 | 34.69748 | -103.93745 | 35080 ft | 474 kts | 102° |
| 2026-05-08 07:15 | 34.68352 | -103.85985 | 35063 ft | 474 kts | 102° |
| 2026-05-08 07:15 | 34.66932 | -103.78124 | 35070 ft | 477 kts | 102° |
| 2026-05-08 07:16 | 34.65512 | -103.70293 | 35051 ft | 478 kts | 102° |
| 2026-05-08 07:16 | 34.64081 | -103.62423 | 35059 ft | 480 kts | 103° |
| 2026-05-08 07:17 | 34.62630 | -103.54487 | 35064 ft | 481 kts | 103° |
| 2026-05-08 07:17 | 34.61180 | -103.46561 | 35221 ft | 484 kts | 104° |
| 2026-05-08 07:18 | 34.60450 | -103.42584 | 35503 ft | 483 kts | 104° |
| 2026-05-08 07:18 | 34.59728 | -103.38663 | 35781 ft | 482 kts | 104° |
| 2026-05-08 07:18 | 34.58996 | -103.34703 | 36016 ft | 482 kts | 105° |
| 2026-05-08 07:18 | 34.58263 | -103.30737 | 36196 ft | 483 kts | 105° |
| 2026-05-08 07:19 | 34.57526 | -103.26761 | 36363 ft | 483 kts | 106° |
| 2026-05-08 07:19 | 34.56787 | -103.22783 | 36536 ft | 484 kts | 106° |
| 2026-05-08 07:19 | 34.56045 | -103.18802 | 36712 ft | 484 kts | 106° |
| 2026-05-08 07:19 | 34.55303 | -103.14835 | 36880 ft | 484 kts | 106° |
| 2026-05-08 07:20 | 34.54570 | -103.10912 | 37032 ft | 485 kts | 106° |
| 2026-05-08 07:20 | 34.53816 | -103.06876 | 37033 ft | 486 kts | 107° |
| 2026-05-08 07:20 | 34.52329 | -102.98947 | 37036 ft | 486 kts | 107° |
| 2026-05-08 07:21 | 34.50828 | -102.90984 | 37048 ft | 486 kts | 107° |
| 2026-05-08 07:21 | 34.49087 | -102.83127 | 37051 ft | 483 kts | 113° |
| 2026-05-08 07:22 | 34.46677 | -102.75568 | 37045 ft | 482 kts | 118° |
| 2026-05-08 07:22 | 34.44105 | -102.68088 | 37041 ft | 482 kts | 117° |
| 2026-05-08 07:23 | 34.41541 | -102.60625 | 37036 ft | 483 kts | 118° |
| 2026-05-08 07:23 | 34.38979 | -102.53152 | 37035 ft | 483 kts | 118° |
| 2026-05-08 07:24 | 34.36408 | -102.45651 | 37034 ft | 483 kts | 118° |
| 2026-05-08 07:24 | 34.33831 | -102.38158 | 37031 ft | 484 kts | 118° |
| 2026-05-08 07:25 | 34.31262 | -102.30698 | 37023 ft | 483 kts | 119° |
| 2026-05-08 07:26 | 34.27386 | -102.19483 | 37021 ft | 483 kts | 119° |
| 2026-05-08 07:26 | 34.24801 | -102.12013 | 37023 ft | 484 kts | 119° |
| 2026-05-08 07:27 | 34.22205 | -102.04544 | 37022 ft | 484 kts | 119° |
| 2026-05-08 07:27 | 34.19583 | -101.97021 | 37021 ft | 485 kts | 119° |
| 2026-05-08 07:28 | 34.16969 | -101.89520 | 37019 ft | 486 kts | 120° |
| 2026-05-08 07:28 | 34.14354 | -101.82044 | 37014 ft | 486 kts | 119° |
| 2026-05-08 07:29 | 34.11727 | -101.74553 | 37005 ft | 486 kts | 120° |
| 2026-05-08 07:29 | 34.09102 | -101.67085 | 37002 ft | 487 kts | 120° |
| 2026-05-08 07:30 | 34.06452 | -101.59568 | 37001 ft | 488 kts | 120° |
| 2026-05-08 07:30 | 34.03800 | -101.52056 | 37002 ft | 489 kts | 120° |
| 2026-05-08 07:31 | 34.01151 | -101.44566 | 36997 ft | 488 kts | 120° |
| 2026-05-08 07:31 | 33.98477 | -101.37027 | 36998 ft | 490 kts | 120° |
| 2026-05-08 07:32 | 33.95815 | -101.29542 | 36994 ft | 489 kts | 121° |
| 2026-05-08 07:32 | 33.93122 | -101.21988 | 36997 ft | 490 kts | 121° |
| 2026-05-08 07:33 | 33.90438 | -101.14475 | 36997 ft | 490 kts | 121° |
| 2026-05-08 07:33 | 33.87760 | -101.06998 | 37000 ft | 491 kts | 121° |
| 2026-05-08 07:34 | 33.85049 | -100.99442 | 37007 ft | 491 kts | 121° |
| 2026-05-08 07:34 | 33.82347 | -100.91928 | 37007 ft | 492 kts | 121° |
| 2026-05-08 07:35 | 33.79627 | -100.84380 | 37002 ft | 493 kts | 121° |
| 2026-05-08 07:35 | 33.76902 | -100.76848 | 37003 ft | 494 kts | 121° |
| 2026-05-08 07:36 | 33.74168 | -100.69296 | 36999 ft | 495 kts | 122° |
| 2026-05-08 07:36 | 33.71418 | -100.61726 | 36987 ft | 495 kts | 122° |
| 2026-05-08 07:37 | 33.68676 | -100.54188 | 36983 ft | 496 kts | 122° |
| 2026-05-08 07:37 | 33.65910 | -100.46613 | 36987 ft | 497 kts | 122° |
| 2026-05-08 07:38 | 33.63148 | -100.39056 | 36983 ft | 496 kts | 122° |
| 2026-05-08 07:38 | 33.60376 | -100.31484 | 36969 ft | 498 kts | 123° |
| 2026-05-08 07:39 | 33.57591 | -100.23906 | 36972 ft | 498 kts | 123° |
| 2026-05-08 07:39 | 33.54807 | -100.16339 | 36974 ft | 498 kts | 123° |
| 2026-05-08 07:40 | 33.52007 | -100.08757 | 36977 ft | 500 kts | 123° |
| 2026-05-08 07:40 | 33.49205 | -100.01180 | 36965 ft | 499 kts | 123° |
| 2026-05-08 07:41 | 33.46399 | -99.93604 | 36974 ft | 498 kts | 123° |
| 2026-05-08 07:41 | 33.43596 | -99.86066 | 36971 ft | 500 kts | 123° |
| 2026-05-08 07:42 | 33.40760 | -99.78450 | 36974 ft | 500 kts | 123° |
| 2026-05-08 07:42 | 33.37922 | -99.70851 | 36976 ft | 501 kts | 123° |
| 2026-05-08 07:43 | 33.35099 | -99.63299 | 36974 ft | 502 kts | 123° |
| 2026-05-08 07:43 | 33.32240 | -99.55675 | 36983 ft | 503 kts | 124° |
| 2026-05-08 07:44 | 33.29384 | -99.48081 | 36987 ft | 503 kts | 123° |
| 2026-05-08 07:44 | 33.26531 | -99.40501 | 36988 ft | 504 kts | 124° |
| 2026-05-08 07:45 | 33.23644 | -99.32851 | 36982 ft | 504 kts | 124° |
| 2026-05-08 07:45 | 33.20781 | -99.25280 | 36988 ft | 503 kts | 124° |
| 2026-05-08 07:46 | 33.17893 | -99.17667 | 36987 ft | 504 kts | 124° |
| 2026-05-08 07:46 | 33.14998 | -99.10045 | 36994 ft | 504 kts | 124° |
| 2026-05-08 07:47 | 33.12107 | -99.02452 | 36993 ft | 505 kts | 125° |
| 2026-05-08 07:47 | 33.09213 | -98.94868 | 36995 ft | 505 kts | 125° |
| 2026-05-08 07:48 | 33.06322 | -98.87296 | 36989 ft | 504 kts | 125° |
| 2026-05-08 07:48 | 33.03405 | -98.79696 | 36992 ft | 504 kts | 125° |
| 2026-05-08 07:49 | 33.00505 | -98.72118 | 36993 ft | 504 kts | 124° |
| 2026-05-08 07:49 | 32.97618 | -98.64562 | 36991 ft | 503 kts | 124° |
| 2026-05-08 07:50 | 32.94718 | -98.56993 | 36997 ft | 505 kts | 125° |
| 2026-05-08 07:50 | 32.91803 | -98.49400 | 36987 ft | 506 kts | 124° |
| 2026-05-08 07:51 | 32.88885 | -98.41815 | 36986 ft | 507 kts | 124° |
| 2026-05-08 07:51 | 32.85962 | -98.34226 | 36980 ft | 506 kts | 125° |
| 2026-05-08 07:52 | 32.83020 | -98.26605 | 36988 ft | 506 kts | 125° |
| 2026-05-08 07:52 | 32.80107 | -98.19079 | 36993 ft | 505 kts | 125° |
| 2026-05-08 07:53 | 32.77164 | -98.11498 | 36991 ft | 507 kts | 125° |
| 2026-05-08 07:53 | 32.74220 | -98.03916 | 37003 ft | 507 kts | 125° |
| 2026-05-08 07:54 | 32.71231 | -97.96345 | 37007 ft | 506 kts | 126° |
| 2026-05-08 07:54 | 32.68129 | -97.88845 | 37008 ft | 507 kts | 127° |
| 2026-05-08 07:55 | 32.65040 | -97.81389 | 37000 ft | 505 kts | 127° |
| 2026-05-08 07:55 | 32.61950 | -97.73915 | 37005 ft | 505 kts | 127° |
| 2026-05-08 07:56 | 32.58877 | -97.66492 | 37001 ft | 506 kts | 126° |
| 2026-05-08 07:56 | 32.55785 | -97.59025 | 37005 ft | 505 kts | 127° |
| 2026-05-08 07:57 | 32.52671 | -97.51530 | 37003 ft | 506 kts | 127° |
| 2026-05-08 07:57 | 32.49573 | -97.44087 | 37000 ft | 506 kts | 126° |
| 2026-05-08 07:58 | 32.46468 | -97.36639 | 37004 ft | 507 kts | 127° |
| 2026-05-08 07:58 | 32.43359 | -97.29188 | 37001 ft | 505 kts | 127° |
| 2026-05-08 07:59 | 32.40261 | -97.21787 | 36999 ft | 504 kts | 127° |
| 2026-05-08 07:59 | 32.37153 | -97.14387 | 36994 ft | 505 kts | 127° |
| 2026-05-08 08:00 | 32.34023 | -97.06934 | 36997 ft | 505 kts | 127° |
| 2026-05-08 08:00 | 32.30914 | -96.99541 | 36996 ft | 502 kts | 127° |
| 2026-05-08 08:01 | 32.27738 | -96.92261 | 36989 ft | 498 kts | 131° |
| 2026-05-08 08:01 | 32.24269 | -96.85191 | 36989 ft | 498 kts | 131° |
| 2026-05-08 08:02 | 32.20768 | -96.78127 | 36989 ft | 499 kts | 131° |
| 2026-05-08 08:02 | 32.17295 | -96.71098 | 36984 ft | 498 kts | 131° |
| 2026-05-08 08:03 | 32.13810 | -96.64057 | 36987 ft | 500 kts | 131° |
| 2026-05-08 08:03 | 32.10311 | -96.56991 | 36992 ft | 501 kts | 131° |
| 2026-05-08 08:04 | 32.06811 | -96.49929 | 36999 ft | 499 kts | 131° |
| 2026-05-08 08:04 | 32.03327 | -96.42915 | 37002 ft | 500 kts | 131° |
| 2026-05-08 08:05 | 31.99806 | -96.35849 | 37007 ft | 501 kts | 131° |
| 2026-05-08 08:05 | 31.96285 | -96.28792 | 37004 ft | 500 kts | 132° |
| 2026-05-08 08:06 | 31.92777 | -96.21771 | 37002 ft | 501 kts | 131° |
| 2026-05-08 08:06 | 31.89252 | -96.14731 | 36997 ft | 500 kts | 132° |
| 2026-05-08 08:07 | 31.85733 | -96.07715 | 36990 ft | 500 kts | 132° |
| 2026-05-08 08:07 | 31.82207 | -96.00700 | 36990 ft | 500 kts | 132° |
| 2026-05-08 08:08 | 31.78678 | -95.93691 | 36987 ft | 501 kts | 132° |
| 2026-05-08 08:08 | 31.75128 | -95.86652 | 36990 ft | 500 kts | 131° |
| 2026-05-08 08:09 | 31.71580 | -95.79633 | 36993 ft | 502 kts | 132° |
| 2026-05-08 08:09 | 31.68030 | -95.72619 | 36995 ft | 500 kts | 132° |
| 2026-05-08 08:10 | 31.64479 | -95.65623 | 36993 ft | 503 kts | 131° |
| 2026-05-08 08:10 | 31.60918 | -95.58615 | 36991 ft | 502 kts | 131° |
| 2026-05-08 08:11 | 31.57362 | -95.51622 | 36991 ft | 500 kts | 132° |
| 2026-05-08 08:11 | 31.53790 | -95.44621 | 36986 ft | 500 kts | 131° |
| 2026-05-08 08:12 | 31.50219 | -95.37636 | 36980 ft | 501 kts | 131° |
| 2026-05-08 08:12 | 31.46640 | -95.30650 | 36981 ft | 502 kts | 132° |
| 2026-05-08 08:13 | 31.43072 | -95.23681 | 36981 ft | 500 kts | 132° |
| 2026-05-08 08:13 | 31.39473 | -95.16678 | 36978 ft | 502 kts | 132° |
| 2026-05-08 08:14 | 31.35876 | -95.09691 | 36976 ft | 503 kts | 132° |
| 2026-05-08 08:14 | 31.32289 | -95.02722 | 36974 ft | 501 kts | 132° |
| 2026-05-08 08:15 | 31.28698 | -94.95769 | 36981 ft | 500 kts | 132° |
| 2026-05-08 08:15 | 31.25098 | -94.88816 | 36985 ft | 502 kts | 132° |
| 2026-05-08 08:16 | 31.21521 | -94.81896 | 36988 ft | 499 kts | 132° |
| 2026-05-08 08:16 | 31.17920 | -94.74964 | 36996 ft | 502 kts | 131° |
| 2026-05-08 08:17 | 31.14670 | -94.67747 | 36997 ft | 510 kts | 124° |
| 2026-05-08 08:17 | 31.11761 | -94.60116 | 37002 ft | 515 kts | 123° |
| 2026-05-08 08:18 | 31.08904 | -94.52531 | 36999 ft | 512 kts | 123° |
| 2026-05-08 08:18 | 31.06022 | -94.44957 | 36997 ft | 515 kts | 123° |
| 2026-05-08 08:19 | 31.03120 | -94.37362 | 36998 ft | 515 kts | 122° |
| 2026-05-08 08:19 | 31.00212 | -94.29756 | 36996 ft | 512 kts | 123° |
| 2026-05-08 08:20 | 30.97313 | -94.22212 | 36988 ft | 513 kts | 123° |
| 2026-05-08 08:20 | 30.94405 | -94.14650 | 36989 ft | 513 kts | 123° |
| 2026-05-08 08:21 | 30.91501 | -94.07118 | 36994 ft | 513 kts | 123° |
| 2026-05-08 08:21 | 30.88591 | -93.99581 | 36989 ft | 512 kts | 123° |
| 2026-05-08 08:22 | 30.85656 | -93.92005 | 36989 ft | 515 kts | 123° |
| 2026-05-08 08:22 | 30.82734 | -93.84459 | 36980 ft | 513 kts | 123° |
| 2026-05-08 08:23 | 30.79806 | -93.76928 | 36974 ft | 513 kts | 122° |
| 2026-05-08 08:23 | 30.76851 | -93.69353 | 36969 ft | 515 kts | 123° |
| 2026-05-08 08:24 | 30.73902 | -93.61800 | 36972 ft | 517 kts | 123° |
| 2026-05-08 08:24 | 30.70938 | -93.54228 | 36977 ft | 518 kts | 122° |
| 2026-05-08 08:25 | 30.67956 | -93.46620 | 36978 ft | 520 kts | 123° |
| 2026-05-08 08:25 | 30.64980 | -93.39025 | 36981 ft | 518 kts | 122° |
| 2026-05-08 08:26 | 30.61987 | -93.31431 | 36972 ft | 519 kts | 123° |
| 2026-05-08 08:26 | 30.58973 | -93.23795 | 36986 ft | 519 kts | 123° |
| 2026-05-08 08:27 | 30.55976 | -93.16201 | 36984 ft | 520 kts | 123° |
| 2026-05-08 08:27 | 30.52962 | -93.08595 | 36980 ft | 519 kts | 123° |
| 2026-05-08 08:28 | 30.49942 | -93.01000 | 36976 ft | 520 kts | 123° |
| 2026-05-08 08:28 | 30.46893 | -92.93346 | 36979 ft | 524 kts | 123° |
| 2026-05-08 08:29 | 30.43862 | -92.85725 | 36974 ft | 521 kts | 123° |
| 2026-05-08 08:29 | 30.40820 | -92.78121 | 36982 ft | 523 kts | 123° |
| 2026-05-08 08:30 | 30.37779 | -92.70510 | 36985 ft | 520 kts | 123° |
| 2026-05-08 08:30 | 30.33217 | -92.59152 | 36979 ft | 520 kts | 123° |
| 2026-05-08 08:31 | 30.30183 | -92.51610 | 36973 ft | 520 kts | 123° |
| 2026-05-08 08:31 | 30.27115 | -92.43993 | 36979 ft | 522 kts | 123° |
| 2026-05-08 08:32 | 30.24056 | -92.36405 | 36982 ft | 521 kts | 123° |
| 2026-05-08 08:32 | 30.20999 | -92.28844 | 36976 ft | 521 kts | 123° |
| 2026-05-08 08:33 | 30.17877 | -92.21296 | 36981 ft | 520 kts | 126° |
| 2026-05-08 08:33 | 30.14502 | -92.13988 | 36983 ft | 518 kts | 127° |
| 2026-05-08 08:34 | 30.11078 | -92.06671 | 36981 ft | 518 kts | 126° |
| 2026-05-08 08:34 | 30.07676 | -91.99387 | 36980 ft | 518 kts | 126° |
| 2026-05-08 08:35 | 30.04273 | -91.92100 | 36980 ft | 518 kts | 126° |
| 2026-05-08 08:35 | 30.00846 | -91.84759 | 36983 ft | 517 kts | 126° |
| 2026-05-08 08:36 | 29.97430 | -91.77469 | 36981 ft | 518 kts | 126° |
| 2026-05-08 08:36 | 29.94019 | -91.70191 | 36976 ft | 517 kts | 126° |
| 2026-05-08 08:37 | 29.90612 | -91.62946 | 36978 ft | 518 kts | 126° |
| 2026-05-08 08:37 | 29.87173 | -91.55643 | 36978 ft | 519 kts | 126° |
| 2026-05-08 08:38 | 29.83758 | -91.48395 | 36977 ft | 516 kts | 126° |
| 2026-05-08 08:38 | 29.80323 | -91.41127 | 36980 ft | 517 kts | 125° |
| 2026-05-08 08:39 | 29.76893 | -91.33883 | 36974 ft | 516 kts | 126° |
| 2026-05-08 08:39 | 29.73473 | -91.26668 | 36982 ft | 516 kts | 126° |
| 2026-05-08 08:40 | 29.70040 | -91.19440 | 36979 ft | 515 kts | 126° |
| 2026-05-08 08:40 | 29.66604 | -91.12222 | 36977 ft | 515 kts | 126° |
| 2026-05-08 08:41 | 29.63179 | -91.05041 | 36976 ft | 515 kts | 126° |
| 2026-05-08 08:41 | 29.59738 | -90.97838 | 36972 ft | 515 kts | 126° |
| 2026-05-08 08:42 | 29.56296 | -90.90649 | 36969 ft | 515 kts | 125° |
| 2026-05-08 08:42 | 29.52849 | -90.83456 | 36970 ft | 515 kts | 126° |
| 2026-05-08 08:43 | 29.49403 | -90.76281 | 36966 ft | 516 kts | 125° |
| 2026-05-08 08:43 | 29.45960 | -90.69119 | 36966 ft | 515 kts | 125° |
| 2026-05-08 08:44 | 29.42501 | -90.61945 | 36964 ft | 514 kts | 125° |
| 2026-05-08 08:44 | 29.39045 | -90.54784 | 36962 ft | 515 kts | 125° |
| 2026-05-08 08:45 | 29.35595 | -90.47649 | 36967 ft | 514 kts | 125° |
| 2026-05-08 08:45 | 29.32128 | -90.40493 | 36967 ft | 513 kts | 125° |
| 2026-05-08 08:46 | 29.28667 | -90.33363 | 36960 ft | 513 kts | 126° |
| 2026-05-08 08:46 | 29.25201 | -90.26228 | 36964 ft | 513 kts | 125° |
| 2026-05-08 08:47 | 29.21753 | -90.19134 | 36963 ft | 513 kts | 126° |
| 2026-05-08 08:47 | 29.18301 | -90.12016 | 36958 ft | 512 kts | 124° |
| 2026-05-08 08:48 | 29.15273 | -90.04610 | 36962 ft | 517 kts | 118° |
| 2026-05-08 08:48 | 29.12463 | -89.97051 | 36957 ft | 516 kts | 118° |
| 2026-05-08 08:49 | 29.09670 | -89.89535 | 36961 ft | 516 kts | 118° |
| 2026-05-08 08:49 | 29.06851 | -89.82007 | 36960 ft | 516 kts | 118° |
| 2026-05-08 08:50 | 29.04028 | -89.74495 | 36960 ft | 516 kts | 118° |
| 2026-05-08 08:50 | 29.01191 | -89.66956 | 36959 ft | 516 kts | 118° |
| 2026-05-08 08:51 | 28.98364 | -89.59460 | 36956 ft | 515 kts | 118° |
| 2026-05-08 08:51 | 28.95530 | -89.51969 | 36954 ft | 517 kts | 118° |
| 2026-05-08 08:52 | 28.92690 | -89.44473 | 36948 ft | 516 kts | 118° |
| 2026-05-08 08:52 | 28.89847 | -89.36983 | 36942 ft | 516 kts | 118° |
| 2026-05-08 08:53 | 28.86999 | -89.29495 | 36943 ft | 515 kts | 118° |
| 2026-05-08 08:53 | 28.84139 | -89.21994 | 36940 ft | 515 kts | 118° |
| 2026-05-08 08:54 | 28.81279 | -89.14507 | 36940 ft | 516 kts | 118° |
| 2026-05-08 08:54 | 28.78432 | -89.07066 | 36939 ft | 515 kts | 118° |
| 2026-05-08 08:55 | 28.75559 | -88.99573 | 36937 ft | 516 kts | 118° |
| 2026-05-08 08:55 | 28.72684 | -88.92093 | 36932 ft | 516 kts | 118° |
| 2026-05-08 08:56 | 28.69813 | -88.84633 | 36937 ft | 516 kts | 118° |
| 2026-05-08 08:56 | 28.66954 | -88.77218 | 36934 ft | 515 kts | 118° |
| 2026-05-08 08:57 | 28.64061 | -88.69733 | 36938 ft | 514 kts | 118° |
| 2026-05-08 08:57 | 28.61194 | -88.62327 | 36939 ft | 514 kts | 118° |
| 2026-05-08 08:58 | 28.58321 | -88.54925 | 36938 ft | 515 kts | 118° |
| 2026-05-08 08:58 | 28.55418 | -88.47456 | 36937 ft | 515 kts | 118° |
| 2026-05-08 08:59 | 28.52533 | -88.40044 | 36936 ft | 515 kts | 118° |
| 2026-05-08 08:59 | 28.49637 | -88.32617 | 36935 ft | 515 kts | 118° |
| 2026-05-08 09:00 | 28.46754 | -88.25234 | 36936 ft | 514 kts | 118° |
| 2026-05-08 09:00 | 28.43857 | -88.17833 | 36936 ft | 514 kts | 118° |
| 2026-05-08 09:01 | 28.40949 | -88.10418 | 36936 ft | 515 kts | 118° |
| 2026-05-08 09:01 | 28.38108 | -88.02937 | 36937 ft | 517 kts | 115° |
| 2026-05-08 09:02 | 28.35792 | -87.95249 | 36942 ft | 518 kts | 111° |
| 2026-05-08 09:02 | 28.33583 | -87.87514 | 36950 ft | 518 kts | 111° |
| 2026-05-08 09:03 | 28.31353 | -87.79752 | 36958 ft | 518 kts | 111° |
| 2026-05-08 09:03 | 28.29120 | -87.72028 | 36960 ft | 518 kts | 111° |
| 2026-05-08 09:04 | 28.26872 | -87.64293 | 36961 ft | 517 kts | 111° |
| 2026-05-08 09:04 | 28.24615 | -87.56538 | 36961 ft | 517 kts | 111° |
| 2026-05-08 09:05 | 28.22364 | -87.48827 | 36961 ft | 517 kts | 111° |
| 2026-05-08 09:05 | 28.20112 | -87.41122 | 36959 ft | 516 kts | 111° |
| 2026-05-08 09:06 | 28.17860 | -87.33439 | 36953 ft | 516 kts | 111° |
| 2026-05-08 09:06 | 28.15594 | -87.25734 | 36949 ft | 515 kts | 111° |
| 2026-05-08 09:07 | 28.13333 | -87.18059 | 36940 ft | 515 kts | 111° |
| 2026-05-08 09:07 | 28.11058 | -87.10349 | 36940 ft | 514 kts | 111° |
| 2026-05-08 09:08 | 28.08788 | -87.02673 | 36940 ft | 515 kts | 111° |
| 2026-05-08 09:08 | 28.06505 | -86.94965 | 36938 ft | 514 kts | 111° |
| 2026-05-08 09:09 | 28.04213 | -86.87248 | 36939 ft | 513 kts | 111° |
| 2026-05-08 09:09 | 28.01950 | -86.79633 | 36944 ft | 513 kts | 111° |
| 2026-05-08 09:10 | 27.99694 | -86.72010 | 36943 ft | 513 kts | 111° |
| 2026-05-08 09:10 | 27.97471 | -86.64330 | 36944 ft | 513 kts | 110° |
| 2026-05-08 09:11 | 27.95262 | -86.56697 | 36946 ft | 513 kts | 110° |
| 2026-05-08 09:11 | 27.93044 | -86.49057 | 36947 ft | 513 kts | 110° |
| 2026-05-08 09:12 | 27.90832 | -86.41449 | 36952 ft | 512 kts | 110° |
| 2026-05-08 09:12 | 27.88607 | -86.33824 | 36952 ft | 512 kts | 111° |
| 2026-05-08 09:13 | 27.86376 | -86.26193 | 36955 ft | 511 kts | 111° |
| 2026-05-08 09:13 | 27.84151 | -86.18608 | 36955 ft | 511 kts | 110° |
| 2026-05-08 09:14 | 27.81918 | -86.11003 | 36959 ft | 510 kts | 110° |
| 2026-05-08 09:14 | 27.79682 | -86.03412 | 36960 ft | 510 kts | 111° |
| 2026-05-08 09:15 | 27.77457 | -85.95864 | 36958 ft | 510 kts | 110° |
| 2026-05-08 09:15 | 27.75212 | -85.88277 | 36954 ft | 510 kts | 110° |
| 2026-05-08 09:16 | 27.72972 | -85.80720 | 36959 ft | 509 kts | 110° |
| 2026-05-08 09:16 | 27.70726 | -85.73157 | 36958 ft | 510 kts | 110° |
| 2026-05-08 09:17 | 27.68472 | -85.65584 | 36962 ft | 510 kts | 110° |
| 2026-05-08 09:17 | 27.66224 | -85.58041 | 36956 ft | 510 kts | 110° |
| 2026-05-08 09:18 | 27.63966 | -85.50479 | 36958 ft | 509 kts | 110° |
| 2026-05-08 09:18 | 27.61720 | -85.42969 | 36954 ft | 508 kts | 110° |
| 2026-05-08 09:19 | 27.59511 | -85.35384 | 36959 ft | 509 kts | 107° |
| 2026-05-08 09:19 | 27.57921 | -85.27620 | 36956 ft | 509 kts | 102° |
| 2026-05-08 09:20 | 27.56610 | -85.19807 | 36960 ft | 510 kts | 102° |
| 2026-05-08 09:20 | 27.55264 | -85.12015 | 36956 ft | 509 kts | 102° |
| 2026-05-08 09:21 | 27.53895 | -85.04236 | 36960 ft | 509 kts | 102° |